sensor_id;sensor_type;location;lat;lon;timestamp;pressure;altitude;pressure_sealevel;temperature;humidity
16525;BME280;8375;33.594;-117.718;2023-04-02T00:00:16;100586.06;;;20.80;39.50
16525;BME280;8375;33.594;-117.718;2023-04-02T00:02:48;100582.44;;;20.81;39.08
16525;BME280;8375;33.594;-117.718;2023-04-02T00:05:36;100580.97;;;20.78;38.25
16525;BME280;8375;33.594;-117.718;2023-04-02T00:08:25;100581.00;;;20.70;37.25
16525;BME280;8375;33.594;-117.718;2023-04-02T00:10:55;100586.84;;;20.57;37.46
16525;BME280;8375;33.594;-117.718;2023-04-02T00:13:31;100576.00;;;20.52;37.97
16525;BME280;8375;33.594;-117.718;2023-04-02T00:16:00;100579.72;;;20.34;37.71
16525;BME280;8375;33.594;-117.718;2023-04-02T00:18:32;100580.72;;;20.33;37.91
16525;BME280;8375;33.594;-117.718;2023-04-02T00:21:10;100579.03;;;20.09;37.10
16525;BME280;8375;33.594;-117.718;2023-04-02T00:23:42;100577.94;;;19.95;37.26
16525;BME280;8375;33.594;-117.718;2023-04-02T00:26:29;100570.56;;;19.90;38.11
16525;BME280;8375;33.594;-117.718;2023-04-02T00:28:58;100569.38;;;19.85;36.86
16525;BME280;8375;33.594;-117.718;2023-04-02T00:31:27;100571.03;;;19.77;37.93
16525;BME280;8375;33.594;-117.718;2023-04-02T00:33:59;100566.63;;;19.78;37.17
16525;BME280;8375;33.594;-117.718;2023-04-02T00:36:32;100567.72;;;19.84;36.91
16525;BME280;8375;33.594;-117.718;2023-04-02T00:39:03;100571.69;;;19.79;37.04
16525;BME280;8375;33.594;-117.718;2023-04-02T00:41:37;100575.31;;;19.78;36.20
16525;BME280;8375;33.594;-117.718;2023-04-02T00:44:13;100569.28;;;19.61;36.74
16525;BME280;8375;33.594;-117.718;2023-04-02T00:46:47;100565.16;;;19.59;39.94
16525;BME280;8375;33.594;-117.718;2023-04-02T00:49:22;100561.41;;;19.53;40.25
16525;BME280;8375;33.594;-117.718;2023-04-02T00:51:55;100560.78;;;19.43;41.30
16525;BME280;8375;33.594;-117.718;2023-04-02T00:54:26;100568.69;;;19.26;39.04
16525;BME280;8375;33.594;-117.718;2023-04-02T00:56:57;100561.81;;;19.09;38.13
16525;BME280;8375;33.594;-117.718;2023-04-02T00:59:28;100565.22;;;18.92;38.52
16525;BME280;8375;33.594;-117.718;2023-04-02T01:01:59;100569.66;;;18.84;38.30
16525;BME280;8375;33.594;-117.718;2023-04-02T01:04:32;100577.38;;;18.77;35.51
16525;BME280;8375;33.594;-117.718;2023-04-02T01:07:07;100578.53;;;18.66;34.73
16525;BME280;8375;33.594;-117.718;2023-04-02T01:10:01;100580.63;;;18.62;35.17
16525;BME280;8375;33.594;-117.718;2023-04-02T01:12:50;100580.31;;;18.57;36.35
16525;BME280;8375;33.594;-117.718;2023-04-02T01:15:24;100584.22;;;18.53;38.68
16525;BME280;8375;33.594;-117.718;2023-04-02T01:18:10;100580.69;;;18.28;38.10
16525;BME280;8375;33.594;-117.718;2023-04-02T01:21:06;100577.03;;;18.12;41.18
16525;BME280;8375;33.594;-117.718;2023-04-02T01:23:47;100576.13;;;17.95;42.43
16525;BME280;8375;33.594;-117.718;2023-04-02T01:26:30;100588.19;;;17.80;41.17
16525;BME280;8375;33.594;-117.718;2023-04-02T01:29:05;100588.41;;;17.60;41.40
16525;BME280;8375;33.594;-117.718;2023-04-02T01:31:39;100584.53;;;17.46;40.79
16525;BME280;8375;33.594;-117.718;2023-04-02T01:34:12;100586.00;;;17.40;42.40
16525;BME280;8375;33.594;-117.718;2023-04-02T01:36:48;100581.38;;;17.16;40.27
16525;BME280;8375;33.594;-117.718;2023-04-02T01:39:29;100587.59;;;17.15;40.41
16525;BME280;8375;33.594;-117.718;2023-04-02T01:42:04;100582.88;;;17.00;42.73
16525;BME280;8375;33.594;-117.718;2023-04-02T01:44:40;100593.91;;;17.04;42.79
16525;BME280;8375;33.594;-117.718;2023-04-02T01:47:11;100582.56;;;16.85;41.37
16525;BME280;8375;33.594;-117.718;2023-04-02T01:49:42;100584.13;;;16.60;39.54
16525;BME280;8375;33.594;-117.718;2023-04-02T01:52:14;100587.03;;;16.57;42.32
16525;BME280;8375;33.594;-117.718;2023-04-02T01:54:45;100586.22;;;16.56;43.91
16525;BME280;8375;33.594;-117.718;2023-04-02T01:57:15;100592.88;;;16.51;40.14
16525;BME280;8375;33.594;-117.718;2023-04-02T01:59:45;100588.66;;;16.40;42.59
16525;BME280;8375;33.594;-117.718;2023-04-02T02:02:14;100589.38;;;16.32;43.42
16525;BME280;8375;33.594;-117.718;2023-04-02T02:04:43;100594.19;;;16.37;47.59
16525;BME280;8375;33.594;-117.718;2023-04-02T02:07:14;100599.06;;;16.32;45.94
16525;BME280;8375;33.594;-117.718;2023-04-02T02:09:45;100604.09;;;16.15;44.62
16525;BME280;8375;33.594;-117.718;2023-04-02T02:12:15;100602.34;;;16.06;46.48
16525;BME280;8375;33.594;-117.718;2023-04-02T02:14:49;100600.88;;;15.93;47.16
16525;BME280;8375;33.594;-117.718;2023-04-02T02:17:20;100604.56;;;15.81;47.86
16525;BME280;8375;33.594;-117.718;2023-04-02T02:19:54;100609.41;;;15.76;48.25
16525;BME280;8375;33.594;-117.718;2023-04-02T02:22:27;100604.78;;;15.60;48.38
16525;BME280;8375;33.594;-117.718;2023-04-02T02:24:58;100609.72;;;15.63;51.40
16525;BME280;8375;33.594;-117.718;2023-04-02T02:27:54;100610.28;;;15.57;50.76
16525;BME280;8375;33.594;-117.718;2023-04-02T02:30:30;100620.06;;;15.45;51.08
16525;BME280;8375;33.594;-117.718;2023-04-02T02:33:03;100617.63;;;15.43;52.35
16525;BME280;8375;33.594;-117.718;2023-04-02T02:35:37;100623.38;;;15.47;54.58
16525;BME280;8375;33.594;-117.718;2023-04-02T02:38:28;100628.47;;;15.38;54.87
16525;BME280;8375;33.594;-117.718;2023-04-02T02:41:02;100631.94;;;15.29;55.66
16525;BME280;8375;33.594;-117.718;2023-04-02T02:43:32;100636.06;;;15.22;57.92
16525;BME280;8375;33.594;-117.718;2023-04-02T02:46:04;100635.13;;;15.13;57.12
16525;BME280;8375;33.594;-117.718;2023-04-02T02:48:36;100630.97;;;15.01;58.16
16525;BME280;8375;33.594;-117.718;2023-04-02T02:51:08;100635.63;;;14.97;58.91
16525;BME280;8375;33.594;-117.718;2023-04-02T02:53:53;100632.75;;;14.90;58.03
16525;BME280;8375;33.594;-117.718;2023-04-02T02:56:23;100637.16;;;14.90;59.83
16525;BME280;8375;33.594;-117.718;2023-04-02T02:58:54;100639.75;;;14.80;59.48
16525;BME280;8375;33.594;-117.718;2023-04-02T03:01:27;100643.25;;;14.69;59.02
16525;BME280;8375;33.594;-117.718;2023-04-02T03:03:56;100644.06;;;14.60;58.05
16525;BME280;8375;33.594;-117.718;2023-04-02T03:06:25;100651.47;;;14.55;57.89
16525;BME280;8375;33.594;-117.718;2023-04-02T03:09:02;100643.47;;;14.46;58.82
16525;BME280;8375;33.594;-117.718;2023-04-02T03:11:37;100643.09;;;14.51;60.01
16525;BME280;8375;33.594;-117.718;2023-04-02T03:14:17;100656.28;;;14.49;61.49
16525;BME280;8375;33.594;-117.718;2023-04-02T03:16:55;100660.63;;;14.39;61.21
16525;BME280;8375;33.594;-117.718;2023-04-02T03:19:28;100659.91;;;14.27;61.10
16525;BME280;8375;33.594;-117.718;2023-04-02T03:22:04;100656.91;;;14.32;63.99
16525;BME280;8375;33.594;-117.718;2023-04-02T03:24:40;100656.47;;;14.27;63.48
16525;BME280;8375;33.594;-117.718;2023-04-02T03:27:16;100658.38;;;14.25;63.35
16525;BME280;8375;33.594;-117.718;2023-04-02T03:29:57;100664.78;;;14.11;62.87
16525;BME280;8375;33.594;-117.718;2023-04-02T03:32:33;100653.31;;;14.02;64.05
16525;BME280;8375;33.594;-117.718;2023-04-02T03:35:18;100658.94;;;13.97;65.53
16525;BME280;8375;33.594;-117.718;2023-04-02T03:37:53;100662.50;;;13.96;66.66
16525;BME280;8375;33.594;-117.718;2023-04-02T03:40:27;100666.88;;;13.96;68.05
16525;BME280;8375;33.594;-117.718;2023-04-02T03:43:01;100674.88;;;13.94;65.92
16525;BME280;8375;33.594;-117.718;2023-04-02T03:45:36;100673.00;;;13.63;65.29
16525;BME280;8375;33.594;-117.718;2023-04-02T03:48:11;100677.31;;;13.53;67.03
16525;BME280;8375;33.594;-117.718;2023-04-02T03:50:45;100688.28;;;13.35;67.00
16525;BME280;8375;33.594;-117.718;2023-04-02T03:53:16;100698.25;;;13.30;68.35
16525;BME280;8375;33.594;-117.718;2023-04-02T03:55:44;100699.53;;;13.25;68.22
16525;BME280;8375;33.594;-117.718;2023-04-02T03:58:17;100703.75;;;13.16;68.70
16525;BME280;8375;33.594;-117.718;2023-04-02T04:00:52;100713.69;;;13.11;69.36
16525;BME280;8375;33.594;-117.718;2023-04-02T04:03:28;100717.50;;;13.06;69.32
16525;BME280;8375;33.594;-117.718;2023-04-02T04:06:00;100707.66;;;12.99;69.75
16525;BME280;8375;33.594;-117.718;2023-04-02T04:08:43;100714.53;;;13.00;70.97
16525;BME280;8375;33.594;-117.718;2023-04-02T04:11:15;100715.63;;;12.97;70.92
16525;BME280;8375;33.594;-117.718;2023-04-02T04:13:48;100724.97;;;12.88;70.90
16525;BME280;8375;33.594;-117.718;2023-04-02T04:16:21;100729.63;;;12.85;71.89
16525;BME280;8375;33.594;-117.718;2023-04-02T04:18:58;100719.44;;;12.82;71.32
16525;BME280;8375;33.594;-117.718;2023-04-02T04:21:29;100722.16;;;12.57;72.19
16525;BME280;8375;33.594;-117.718;2023-04-02T04:24:03;100717.53;;;12.50;72.55
16525;BME280;8375;33.594;-117.718;2023-04-02T04:26:40;100721.81;;;12.51;73.72
16525;BME280;8375;33.594;-117.718;2023-04-02T04:29:29;100711.03;;;12.44;73.48
16525;BME280;8375;33.594;-117.718;2023-04-02T04:32:16;100715.75;;;12.39;74.18
16525;BME280;8375;33.594;-117.718;2023-04-02T04:34:56;100712.81;;;12.43;76.65
16525;BME280;8375;33.594;-117.718;2023-04-02T04:37:31;100718.00;;;12.32;76.89
16525;BME280;8375;33.594;-117.718;2023-04-02T04:40:08;100719.41;;;12.25;77.63
16525;BME280;8375;33.594;-117.718;2023-04-02T04:42:40;100712.06;;;12.18;78.92
16525;BME280;8375;33.594;-117.718;2023-04-02T04:45:22;100722.81;;;12.14;79.48
16525;BME280;8375;33.594;-117.718;2023-04-02T04:47:58;100717.13;;;12.09;79.99
16525;BME280;8375;33.594;-117.718;2023-04-02T04:50:33;100715.25;;;12.11;81.45
16525;BME280;8375;33.594;-117.718;2023-04-02T04:53:06;100717.72;;;12.01;80.47
16525;BME280;8375;33.594;-117.718;2023-04-02T04:55:37;100724.53;;;11.91;81.10
16525;BME280;8375;33.594;-117.718;2023-04-02T04:58:15;100721.78;;;11.92;82.10
16525;BME280;8375;33.594;-117.718;2023-04-02T05:00:56;100722.38;;;11.84;81.63
16525;BME280;8375;33.594;-117.718;2023-04-02T05:03:31;100721.88;;;11.79;81.74
16525;BME280;8375;33.594;-117.718;2023-04-02T05:06:08;100722.34;;;11.73;82.40
16525;BME280;8375;33.594;-117.718;2023-04-02T05:08:41;100716.75;;;11.66;82.95
16525;BME280;8375;33.594;-117.718;2023-04-02T05:11:18;100721.56;;;11.59;83.90
16525;BME280;8375;33.594;-117.718;2023-04-02T05:13:52;100723.47;;;11.57;83.87
16525;BME280;8375;33.594;-117.718;2023-04-02T05:16:25;100722.75;;;11.55;84.59
16525;BME280;8375;33.594;-117.718;2023-04-02T05:19:04;100724.00;;;11.74;85.57
16525;BME280;8375;33.594;-117.718;2023-04-02T05:21:40;100720.78;;;11.70;84.27
16525;BME280;8375;33.594;-117.718;2023-04-02T05:27:25;100713.72;;;11.48;85.12
16525;BME280;8375;33.594;-117.718;2023-04-02T05:29:59;100710.72;;;11.41;85.59
16525;BME280;8375;33.594;-117.718;2023-04-02T05:32:32;100713.19;;;11.32;86.26
16525;BME280;8375;33.594;-117.718;2023-04-02T05:35:03;100711.84;;;11.26;87.05
16525;BME280;8375;33.594;-117.718;2023-04-02T05:37:35;100714.66;;;11.23;87.30
16525;BME280;8375;33.594;-117.718;2023-04-02T05:40:13;100713.13;;;11.20;88.33
16525;BME280;8375;33.594;-117.718;2023-04-02T05:42:48;100705.25;;;11.09;88.61
16525;BME280;8375;33.594;-117.718;2023-04-02T05:45:29;100698.91;;;11.13;90.18
16525;BME280;8375;33.594;-117.718;2023-04-02T05:48:02;100702.22;;;11.15;90.89
16525;BME280;8375;33.594;-117.718;2023-04-02T05:50:35;100700.44;;;11.15;91.75
16525;BME280;8375;33.594;-117.718;2023-04-02T05:53:12;100699.41;;;11.18;91.00
16525;BME280;8375;33.594;-117.718;2023-04-02T05:55:49;100697.06;;;11.02;91.35
16525;BME280;8375;33.594;-117.718;2023-04-02T05:58:26;100701.03;;;10.95;90.96
16525;BME280;8375;33.594;-117.718;2023-04-02T06:01:14;100698.25;;;10.85;91.36
16525;BME280;8375;33.594;-117.718;2023-04-02T06:03:51;100705.09;;;10.86;91.86
16525;BME280;8375;33.594;-117.718;2023-04-02T06:06:30;100708.22;;;10.78;91.74
16525;BME280;8375;33.594;-117.718;2023-04-02T06:09:06;100704.09;;;10.76;92.09
16525;BME280;8375;33.594;-117.718;2023-04-02T06:11:39;100711.59;;;10.67;92.84
16525;BME280;8375;33.594;-117.718;2023-04-02T06:14:12;100707.53;;;10.63;93.58
16525;BME280;8375;33.594;-117.718;2023-04-02T06:16:44;100701.06;;;10.69;94.01
16525;BME280;8375;33.594;-117.718;2023-04-02T06:19:17;100701.88;;;10.82;94.46
16525;BME280;8375;33.594;-117.718;2023-04-02T06:21:48;100708.66;;;10.85;93.84
16525;BME280;8375;33.594;-117.718;2023-04-02T06:24:24;100706.28;;;10.69;91.98
16525;BME280;8375;33.594;-117.718;2023-04-02T06:26:56;100709.19;;;10.64;92.88
16525;BME280;8375;33.594;-117.718;2023-04-02T06:29:31;100710.13;;;10.50;92.66
16525;BME280;8375;33.594;-117.718;2023-04-02T06:32:06;100710.44;;;10.46;93.83
16525;BME280;8375;33.594;-117.718;2023-04-02T06:34:38;100708.63;;;10.33;94.07
16525;BME280;8375;33.594;-117.718;2023-04-02T06:37:16;100703.66;;;10.17;94.69
16525;BME280;8375;33.594;-117.718;2023-04-02T06:39:48;100698.78;;;10.12;95.28
16525;BME280;8375;33.594;-117.718;2023-04-02T06:42:20;100697.53;;;10.05;95.20
16525;BME280;8375;33.594;-117.718;2023-04-02T06:44:50;100697.13;;;9.98;93.92
16525;BME280;8375;33.594;-117.718;2023-04-02T06:47:31;100703.41;;;9.81;94.87
16525;BME280;8375;33.594;-117.718;2023-04-02T06:50:05;100696.16;;;9.74;96.37
16525;BME280;8375;33.594;-117.718;2023-04-02T06:52:39;100698.22;;;9.68;96.89
16525;BME280;8375;33.594;-117.718;2023-04-02T06:55:28;100700.69;;;9.70;97.65
16525;BME280;8375;33.594;-117.718;2023-04-02T06:57:58;100704.31;;;9.67;97.79
16525;BME280;8375;33.594;-117.718;2023-04-02T07:00:32;100698.50;;;9.64;97.51
16525;BME280;8375;33.594;-117.718;2023-04-02T07:05:50;100696.28;;;9.58;96.54
16525;BME280;8375;33.594;-117.718;2023-04-02T07:08:20;100694.75;;;9.55;96.88
16525;BME280;8375;33.594;-117.718;2023-04-02T07:10:51;100697.44;;;9.53;96.47
16525;BME280;8375;33.594;-117.718;2023-04-02T07:13:23;100699.19;;;9.53;96.82
16525;BME280;8375;33.594;-117.718;2023-04-02T07:15:52;100699.28;;;9.51;96.72
16525;BME280;8375;33.594;-117.718;2023-04-02T07:18:24;100699.09;;;9.54;96.83
16525;BME280;8375;33.594;-117.718;2023-04-02T07:20:54;100705.50;;;9.49;96.89
16525;BME280;8375;33.594;-117.718;2023-04-02T07:23:24;100707.25;;;9.48;97.64
16525;BME280;8375;33.594;-117.718;2023-04-02T07:25:55;100709.13;;;9.46;97.77
16525;BME280;8375;33.594;-117.718;2023-04-02T07:28:24;100714.41;;;9.45;97.92
16525;BME280;8375;33.594;-117.718;2023-04-02T07:30:52;100721.25;;;9.46;98.56
16525;BME280;8375;33.594;-117.718;2023-04-02T07:33:22;100717.94;;;9.44;98.60
16525;BME280;8375;33.594;-117.718;2023-04-02T07:35:52;100718.75;;;9.44;98.55
16525;BME280;8375;33.594;-117.718;2023-04-02T07:38:22;100723.94;;;9.44;98.85
16525;BME280;8375;33.594;-117.718;2023-04-02T07:40:51;100719.34;;;9.35;98.25
16525;BME280;8375;33.594;-117.718;2023-04-02T07:43:21;100728.34;;;9.29;97.80
16525;BME280;8375;33.594;-117.718;2023-04-02T07:45:50;100731.84;;;9.28;97.79
16525;BME280;8375;33.594;-117.718;2023-04-02T07:48:18;100725.28;;;9.22;97.79
16525;BME280;8375;33.594;-117.718;2023-04-02T07:50:47;100728.72;;;9.23;97.04
16525;BME280;8375;33.594;-117.718;2023-04-02T07:53:26;100730.03;;;9.16;97.28
16525;BME280;8375;33.594;-117.718;2023-04-02T07:55:57;100722.72;;;9.08;96.95
16525;BME280;8375;33.594;-117.718;2023-04-02T07:58:28;100724.59;;;9.06;96.77
16525;BME280;8375;33.594;-117.718;2023-04-02T08:00:57;100717.75;;;9.05;96.79
16525;BME280;8375;33.594;-117.718;2023-04-02T08:03:26;100723.78;;;9.05;96.97
16525;BME280;8375;33.594;-117.718;2023-04-02T08:05:55;100723.78;;;9.05;97.10
16525;BME280;8375;33.594;-117.718;2023-04-02T08:08:25;100729.75;;;9.06;96.73
16525;BME280;8375;33.594;-117.718;2023-04-02T08:10:53;100722.28;;;9.01;97.36
16525;BME280;8375;33.594;-117.718;2023-04-02T08:13:22;100730.81;;;9.03;97.17
16525;BME280;8375;33.594;-117.718;2023-04-02T08:15:52;100731.06;;;8.99;97.25
16525;BME280;8375;33.594;-117.718;2023-04-02T08:18:21;100732.19;;;8.94;97.08
16525;BME280;8375;33.594;-117.718;2023-04-02T08:20:50;100727.94;;;8.93;97.44
16525;BME280;8375;33.594;-117.718;2023-04-02T08:23:19;100725.06;;;8.98;97.75
16525;BME280;8375;33.594;-117.718;2023-04-02T08:25:49;100721.44;;;9.01;98.13
16525;BME280;8375;33.594;-117.718;2023-04-02T08:28:18;100722.09;;;9.04;97.99
16525;BME280;8375;33.594;-117.718;2023-04-02T08:30:47;100722.75;;;8.93;98.11
16525;BME280;8375;33.594;-117.718;2023-04-02T08:33:18;100720.28;;;8.92;98.73
16525;BME280;8375;33.594;-117.718;2023-04-02T08:35:48;100719.06;;;8.98;98.23
16525;BME280;8375;33.594;-117.718;2023-04-02T08:38:18;100725.81;;;9.00;98.03
16525;BME280;8375;33.594;-117.718;2023-04-02T08:40:49;100719.94;;;9.11;98.24
16525;BME280;8375;33.594;-117.718;2023-04-02T08:43:35;100719.47;;;9.19;98.64
16525;BME280;8375;33.594;-117.718;2023-04-02T08:46:12;100730.19;;;9.27;98.40
16525;BME280;8375;33.594;-117.718;2023-04-02T08:48:48;100716.88;;;9.46;99.80
16525;BME280;8375;33.594;-117.718;2023-04-02T08:51:22;100715.97;;;9.47;98.67
16525;BME280;8375;33.594;-117.718;2023-04-02T08:53:52;100710.97;;;9.44;98.47
16525;BME280;8375;33.594;-117.718;2023-04-02T08:56:28;100701.94;;;9.37;97.61
16525;BME280;8375;33.594;-117.718;2023-04-02T08:59:00;100707.97;;;9.37;97.45
16525;BME280;8375;33.594;-117.718;2023-04-02T09:01:39;100698.75;;;9.46;98.47
16525;BME280;8375;33.594;-117.718;2023-04-02T09:04:15;100690.38;;;9.56;99.07
16525;BME280;8375;33.594;-117.718;2023-04-02T09:06:44;100696.41;;;9.56;98.12
16525;BME280;8375;33.594;-117.718;2023-04-02T09:09:14;100693.94;;;9.67;98.94
16525;BME280;8375;33.594;-117.718;2023-04-02T09:11:49;100686.25;;;9.66;98.29
16525;BME280;8375;33.594;-117.718;2023-04-02T09:14:22;100684.94;;;9.73;98.82
16525;BME280;8375;33.594;-117.718;2023-04-02T09:16:53;100688.56;;;9.83;99.36
16525;BME280;8375;33.594;-117.718;2023-04-02T09:19:30;100686.91;;;9.82;98.45
16525;BME280;8375;33.594;-117.718;2023-04-02T09:22:05;100683.09;;;9.88;98.80
16525;BME280;8375;33.594;-117.718;2023-04-02T09:24:35;100677.38;;;9.96;99.19
16525;BME280;8375;33.594;-117.718;2023-04-02T09:27:16;100676.78;;;9.92;98.52
16525;BME280;8375;33.594;-117.718;2023-04-02T09:29:46;100676.16;;;10.02;99.65
16525;BME280;8375;33.594;-117.718;2023-04-02T09:32:33;100668.69;;;9.97;99.21
16525;BME280;8375;33.594;-117.718;2023-04-02T09:35:13;100669.50;;;10.10;100.00
16525;BME280;8375;33.594;-117.718;2023-04-02T09:37:42;100664.53;;;10.07;100.00
16525;BME280;8375;33.594;-117.718;2023-04-02T09:40:32;100665.47;;;10.06;100.00
16525;BME280;8375;33.594;-117.718;2023-04-02T09:43:09;100661.72;;;10.10;100.00
16525;BME280;8375;33.594;-117.718;2023-04-02T09:45:42;100659.66;;;10.03;100.00
16525;BME280;8375;33.594;-117.718;2023-04-02T09:48:23;100658.63;;;10.05;100.00
16525;BME280;8375;33.594;-117.718;2023-04-02T09:51:06;100661.31;;;10.17;100.00
16525;BME280;8375;33.594;-117.718;2023-04-02T09:53:36;100651.88;;;10.16;100.00
16525;BME280;8375;33.594;-117.718;2023-04-02T09:56:12;100649.91;;;10.19;100.00
16525;BME280;8375;33.594;-117.718;2023-04-02T09:58:42;100651.44;;;10.22;100.00
16525;BME280;8375;33.594;-117.718;2023-04-02T10:01:28;100654.38;;;10.17;100.00
16525;BME280;8375;33.594;-117.718;2023-04-02T10:03:58;100655.41;;;10.15;100.00
16525;BME280;8375;33.594;-117.718;2023-04-02T10:06:30;100648.56;;;10.13;100.00
16525;BME280;8375;33.594;-117.718;2023-04-02T10:09:20;100638.59;;;10.20;100.00
16525;BME280;8375;33.594;-117.718;2023-04-02T10:11:54;100640.97;;;10.10;100.00
16525;BME280;8375;33.594;-117.718;2023-04-02T10:14:25;100643.16;;;10.17;100.00
16525;BME280;8375;33.594;-117.718;2023-04-02T10:16:58;100629.88;;;10.21;100.00
16525;BME280;8375;33.594;-117.718;2023-04-02T10:19:32;100628.66;;;10.14;100.00
16525;BME280;8375;33.594;-117.718;2023-04-02T10:22:09;100624.16;;;10.03;100.00
16525;BME280;8375;33.594;-117.718;2023-04-02T10:24:40;100623.66;;;9.98;100.00
16525;BME280;8375;33.594;-117.718;2023-04-02T10:27:17;100624.78;;;9.94;100.00
16525;BME280;8375;33.594;-117.718;2023-04-02T10:30:08;100621.69;;;9.89;100.00
16525;BME280;8375;33.594;-117.718;2023-04-02T10:32:43;100621.59;;;9.90;100.00
16525;BME280;8375;33.594;-117.718;2023-04-02T10:35:23;100630.09;;;9.92;100.00
16525;BME280;8375;33.594;-117.718;2023-04-02T10:38:12;100630.19;;;9.91;100.00
16525;BME280;8375;33.594;-117.718;2023-04-02T10:40:46;100625.31;;;9.86;100.00
16525;BME280;8375;33.594;-117.718;2023-04-02T10:43:49;100629.16;;;9.93;100.00
16525;BME280;8375;33.594;-117.718;2023-04-02T10:46:25;100629.03;;;9.95;100.00
16525;BME280;8375;33.594;-117.718;2023-04-02T10:49:03;100629.78;;;9.97;100.00
16525;BME280;8375;33.594;-117.718;2023-04-02T10:51:40;100627.69;;;10.02;100.00
16525;BME280;8375;33.594;-117.718;2023-04-02T10:54:35;100622.63;;;10.01;100.00
16525;BME280;8375;33.594;-117.718;2023-04-02T10:57:10;100616.59;;;10.00;100.00
16525;BME280;8375;33.594;-117.718;2023-04-02T10:59:44;100620.13;;;9.99;100.00
16525;BME280;8375;33.594;-117.718;2023-04-02T11:02:26;100617.66;;;9.97;100.00
16525;BME280;8375;33.594;-117.718;2023-04-02T11:04:59;100616.94;;;9.95;100.00
16525;BME280;8375;33.594;-117.718;2023-04-02T11:07:31;100614.72;;;10.02;100.00
16525;BME280;8375;33.594;-117.718;2023-04-02T11:10:06;100611.41;;;10.00;100.00
16525;BME280;8375;33.594;-117.718;2023-04-02T11:12:40;100613.78;;;10.03;100.00
16525;BME280;8375;33.594;-117.718;2023-04-02T11:15:14;100621.91;;;9.98;100.00
16525;BME280;8375;33.594;-117.718;2023-04-02T11:17:44;100619.53;;;9.95;100.00
16525;BME280;8375;33.594;-117.718;2023-04-02T11:23:52;100625.53;;;9.96;100.00
16525;BME280;8375;33.594;-117.718;2023-04-02T11:26:39;100623.53;;;9.87;100.00
16525;BME280;8375;33.594;-117.718;2023-04-02T11:29:16;100621.88;;;9.86;100.00
16525;BME280;8375;33.594;-117.718;2023-04-02T11:31:47;100622.72;;;9.86;100.00
16525;BME280;8375;33.594;-117.718;2023-04-02T11:37:32;100622.81;;;9.84;100.00
16525;BME280;8375;33.594;-117.718;2023-04-02T11:40:02;100626.97;;;9.87;100.00
16525;BME280;8375;33.594;-117.718;2023-04-02T11:42:34;100630.19;;;9.91;100.00
16525;BME280;8375;33.594;-117.718;2023-04-02T11:48:29;100625.00;;;9.91;100.00
16525;BME280;8375;33.594;-117.718;2023-04-02T11:50:59;100618.88;;;9.92;100.00
16525;BME280;8375;33.594;-117.718;2023-04-02T11:53:32;100617.00;;;9.94;100.00
16525;BME280;8375;33.594;-117.718;2023-04-02T11:56:09;100627.19;;;9.97;100.00
16525;BME280;8375;33.594;-117.718;2023-04-02T11:58:58;100612.66;;;9.94;100.00
16525;BME280;8375;33.594;-117.718;2023-04-02T12:01:43;100626.78;;;9.90;100.00
16525;BME280;8375;33.594;-117.718;2023-04-02T12:10:25;100621.78;;;10.00;100.00
16525;BME280;8375;33.594;-117.718;2023-04-02T12:12:55;100624.72;;;9.95;100.00
16525;BME280;8375;33.594;-117.718;2023-04-02T12:15:44;100621.69;;;9.89;100.00
16525;BME280;8375;33.594;-117.718;2023-04-02T12:18:15;100617.84;;;9.81;100.00
16525;BME280;8375;33.594;-117.718;2023-04-02T12:20:49;100615.78;;;9.74;100.00
16525;BME280;8375;33.594;-117.718;2023-04-02T12:23:20;100617.03;;;9.81;100.00
16525;BME280;8375;33.594;-117.718;2023-04-02T12:25:56;100615.44;;;9.78;100.00
16525;BME280;8375;33.594;-117.718;2023-04-02T12:28:26;100606.66;;;9.81;100.00
16525;BME280;8375;33.594;-117.718;2023-04-02T12:31:10;100608.59;;;9.64;100.00
16525;BME280;8375;33.594;-117.718;2023-04-02T12:33:41;100604.44;;;9.49;100.00
16525;BME280;8375;33.594;-117.718;2023-04-02T12:36:18;100600.72;;;9.53;100.00
16525;BME280;8375;33.594;-117.718;2023-04-02T12:38:49;100605.78;;;9.54;100.00
16525;BME280;8375;33.594;-117.718;2023-04-02T12:41:23;100603.00;;;9.58;100.00
16525;BME280;8375;33.594;-117.718;2023-04-02T12:43:59;100608.09;;;9.59;100.00
16525;BME280;8375;33.594;-117.718;2023-04-02T12:46:30;100609.09;;;9.57;100.00
16525;BME280;8375;33.594;-117.718;2023-04-02T12:49:03;100604.13;;;9.53;100.00
16525;BME280;8375;33.594;-117.718;2023-04-02T12:51:34;100605.38;;;9.48;100.00
16525;BME280;8375;33.594;-117.718;2023-04-02T12:54:04;100595.81;;;9.35;100.00
16525;BME280;8375;33.594;-117.718;2023-04-02T12:56:32;100608.50;;;9.53;100.00
16525;BME280;8375;33.594;-117.718;2023-04-02T12:59:01;100605.38;;;9.48;100.00
16525;BME280;8375;33.594;-117.718;2023-04-02T13:01:31;100597.47;;;9.36;100.00
16525;BME280;8375;33.594;-117.718;2023-04-02T13:04:04;100595.38;;;9.29;100.00
16525;BME280;8375;33.594;-117.718;2023-04-02T13:06:34;100599.59;;;9.17;100.00
16525;BME280;8375;33.594;-117.718;2023-04-02T13:09:05;100598.13;;;9.13;100.00
16525;BME280;8375;33.594;-117.718;2023-04-02T13:11:35;100597.63;;;9.20;100.00
16525;BME280;8375;33.594;-117.718;2023-04-02T13:14:05;100591.50;;;9.21;100.00
16525;BME280;8375;33.594;-117.718;2023-04-02T13:16:37;100597.44;;;9.23;100.00
16525;BME280;8375;33.594;-117.718;2023-04-02T13:19:21;100593.69;;;9.15;100.00
16525;BME280;8375;33.594;-117.718;2023-04-02T13:21:51;100598.34;;;9.09;100.00
16525;BME280;8375;33.594;-117.718;2023-04-02T13:24:22;100597.88;;;9.03;100.00
16525;BME280;8375;33.594;-117.718;2023-04-02T13:26:53;100600.59;;;9.01;100.00
16525;BME280;8375;33.594;-117.718;2023-04-02T13:29:27;100602.72;;;8.94;100.00